Time;durP1;ratioP1;P1;durP2;ratioP2;P2;SDS_P1;SDS_P2;PMS_P1;PMS_P2;Temp;Humidity;BMP_temperature;BMP_pressure;BME280_temperature;BME280_humidity;BME280_pressure;Samples;Min_cycle;Max_cycle;Signal;HPM_P1;HPM_P2
2022/08/18 00:04:51;;;;;;;8.85;7.97;;;27.10;99.90;;;;;;10246443;28;20305;-83
2022/08/18 00:09:59;;;;;;;7.93;7.10;;;27.10;99.90;;;;;;10247240;29;20647;-82
2022/08/18 00:15:08;;;;;;;8.23;7.53;;;27.10;99.90;;;;;;10246105;28;20285;-82
2022/08/18 00:20:17;;;;;;;8.10;7.40;;;27.00;99.90;;;;;;10247044;29;20291;-81
2022/08/18 00:25:21;;;;;;;7.97;7.18;;;26.90;99.90;;;;;;10225724;29;20272;-82
2022/08/18 00:30:23;;;;;;;8.98;7.95;;;27.00;99.90;;;;;;10244797;28;20579;-82
2022/08/18 00:35:30;;;;;;;8.10;7.32;;;27.00;99.90;;;;;;10246706;28;20285;-82
2022/08/18 00:40:42;;;;;;;8.20;7.40;;;27.00;99.90;;;;;;10251579;28;20307;-82
2022/08/18 00:45:45;;;;;;;8.13;7.40;;;26.90;99.90;;;;;;10252400;28;20234;-81
2022/08/18 00:50:50;;;;;;;8.38;7.03;;;26.90;99.90;;;;;;10255218;29;20230;-81
2022/08/18 00:55:56;;;;;;;8.45;7.65;;;26.90;99.90;;;;;;10268953;28;20640;-82
2022/08/18 01:01:02;;;;;;;8.30;7.20;;;26.90;99.90;;;;;;10252567;28;20367;-81
2022/08/18 01:06:21;;;;;;;8.55;7.75;;;26.80;99.90;;;;;;10253852;29;20325;-82
2022/08/18 01:11:24;;;;;;;8.95;8.05;;;26.80;99.90;;;;;;10253666;29;20317;-82
2022/08/18 01:22:07;;;;;;;9.70;8.02;;;26.80;99.90;;;;;;10251182;28;20325;-82
2022/08/18 01:27:11;;;;;;;9.00;7.65;;;26.80;99.90;;;;;;10253308;29;20222;-82
2022/08/18 01:32:21;;;;;;;8.70;7.85;;;26.80;99.90;;;;;;10264178;28;20682;-82
2022/08/18 01:37:24;;;;;;;7.53;6.90;;;26.80;99.90;;;;;;10251105;28;20273;-82
2022/08/18 01:42:26;;;;;;;8.38;7.68;;;26.70;99.90;;;;;;10250622;28;20288;-82
2022/08/18 01:47:31;;;;;;;9.93;9.02;;;26.70;99.90;;;;;;10252937;28;20292;-82
2022/08/18 01:52:53;;;;;;;8.95;8.05;;;26.70;99.90;;;;;;10250800;28;20619;-82
2022/08/18 01:57:56;;;;;;;8.55;7.63;;;26.70;99.90;;;;;;10252192;28;20334;-82
2022/08/18 02:03:00;;;;;;;8.77;7.97;;;26.60;99.90;;;;;;10251398;28;20230;-81
2022/08/18 02:08:04;;;;;;;8.68;7.88;;;26.70;99.90;;;;;;10251561;28;20237;-82
2022/08/18 02:13:08;;;;;;;8.95;8.05;;;26.60;99.90;;;;;;10250339;29;20230;-82
2022/08/18 02:18:19;;;;;;;8.40;7.70;;;26.60;99.90;;;;;;10248691;29;20274;-82
2022/08/18 02:23:42;;;;;;;9.07;8.18;;;26.60;99.90;;;;;;10251430;29;20670;-82
2022/08/18 02:28:55;;;;;;;10.20;9.15;;;26.60;99.90;;;;;;10251857;29;20230;-82
2022/08/18 02:33:58;;;;;;;9.32;8.38;;;26.60;99.90;;;;;;10247914;28;20238;-82
2022/08/18 02:39:01;;;;;;;9.45;8.55;;;26.50;99.90;;;;;;10248789;28;20257;-82
2022/08/18 02:44:06;;;;;;;9.18;8.27;;;26.50;99.90;;;;;;10249880;29;20654;-82
2022/08/18 02:49:08;;;;;;;10.13;9.13;;;26.50;99.90;;;;;;10248802;28;20677;-82
2022/08/18 02:54:11;;;;;;;9.60;8.63;;;26.50;99.90;;;;;;10250501;29;20241;-82
2022/08/18 02:59:18;;;;;;;11.32;8.68;;;26.50;99.90;;;;;;10249548;28;20332;-82
2022/08/18 03:04:27;;;;;;;9.60;8.70;;;26.50;99.90;;;;;;10246333;28;20266;-82
2022/08/18 03:09:33;;;;;;;9.23;8.32;;;26.50;99.90;;;;;;10249924;29;20245;-82
2022/08/18 03:14:38;;;;;;;9.30;8.50;;;26.50;99.90;;;;;;10250334;29;20638;-82
2022/08/18 03:19:43;;;;;;;10.85;9.85;;;26.40;99.90;;;;;;10248274;28;20261;-82
2022/08/18 03:24:48;;;;;;;10.43;9.43;;;26.50;99.90;;;;;;10243367;28;20292;-82
2022/08/18 03:29:51;;;;;;;9.15;8.32;;;26.40;99.90;;;;;;10264029;28;20265;-81
2022/08/18 03:34:53;;;;;;;10.52;9.35;;;26.40;99.90;;;;;;10246374;28;20285;-82
2022/08/18 03:39:56;;;;;;;9.68;8.70;;;26.40;99.90;;;;;;10246834;28;20304;-82
2022/08/18 03:44:58;;;;;;;9.55;8.65;;;26.40;99.90;;;;;;10252475;28;20226;-82
2022/08/18 03:50:13;;;;;;;10.48;9.48;;;26.40;99.90;;;;;;10247606;29;20242;-82
2022/08/18 03:55:16;;;;;;;9.65;8.75;;;26.40;99.90;;;;;;10246956;29;20600;-81
2022/08/18 04:00:18;;;;;;;10.25;9.23;;;26.40;99.90;;;;;;10258532;28;20300;-82
2022/08/18 04:05:21;;;;;;;9.85;8.95;;;26.40;99.90;;;;;;10256393;28;20266;-82
2022/08/18 04:10:24;;;;;;;10.48;9.48;;;26.40;99.90;;;;;;10246701;28;20261;-82
2022/08/18 04:15:26;;;;;;;11.10;9.30;;;26.40;99.90;;;;;;10245726;29;20276;-82
2022/08/18 04:20:32;;;;;;;10.35;9.27;;;26.40;99.90;;;;;;10241515;29;20281;-82
2022/08/18 04:25:34;;;;;;;10.75;9.70;;;26.40;99.90;;;;;;10247009;29;20292;-81
2022/08/18 04:30:36;;;;;;;11.02;10.02;;;26.40;99.90;;;;;;10240667;28;20746;-82
2022/08/18 04:35:40;;;;;;;9.68;8.77;;;26.40;99.90;;;;;;10245439;28;20734;-82
2022/08/18 04:40:43;;;;;;;10.23;9.32;;;26.40;99.90;;;;;;10247043;29;20246;-82
2022/08/18 04:45:46;;;;;;;10.45;9.50;;;26.40;99.90;;;;;;10238176;28;20269;-81
2022/08/18 04:50:48;;;;;;;10.82;9.77;;;26.40;99.90;;;;;;10232716;28;20242;-81
2022/08/18 04:55:52;;;;;;;11.45;10.35;;;26.40;99.90;;;;;;10241347;28;20238;-82
2022/08/18 05:00:57;;;;;;;11.20;10.10;;;26.40;99.90;;;;;;10240753;28;20774;-82
2022/08/18 05:06:03;;;;;;;11.10;9.60;;;26.40;99.90;;;;;;10242334;29;20679;-81
2022/08/18 05:11:06;;;;;;;11.57;10.48;;;26.50;99.90;;;;;;10245580;28;20249;-81
2022/08/18 05:16:09;;;;;;;11.10;10.00;;;26.50;99.90;;;;;;10247004;29;20293;-82
2022/08/18 05:21:26;;;;;;;11.35;10.25;;;26.50;99.90;;;;;;10244488;28;20258;-81
2022/08/18 05:26:29;;;;;;;10.82;9.77;;;;;;;;;;10252465;28;20675;-82
2022/08/18 05:31:31;;;;;;;10.98;9.98;;;26.40;99.90;;;;;;10253143;29;20655;-81
2022/08/18 05:36:42;;;;;;;11.65;10.43;;;26.40;99.90;;;;;;10251897;28;20289;-81
2022/08/18 05:42:06;;;;;;;11.40;10.30;;;26.50;99.90;;;;;;10234849;29;20710;-83
2022/08/18 05:47:13;;;;;;;11.68;10.55;;;26.50;99.90;;;;;;10213713;29;20227;-82
2022/08/18 05:52:29;;;;;;;11.10;9.93;;;26.50;99.90;;;;;;10242891;28;20242;-82
2022/08/18 05:57:38;;;;;;;11.00;10.00;;;26.60;99.90;;;;;;10264821;28;20301;-82
2022/08/18 06:02:51;;;;;;;11.77;10.50;;;26.60;99.90;;;;;;10249930;28;20794;-81
2022/08/18 06:07:58;;;;;;;11.63;10.43;;;26.60;99.90;;;;;;10250411;28;20230;-82
2022/08/18 06:13:02;;;;;;;12.80;10.23;;;26.60;99.90;;;;;;10249082;28;20226;-82
2022/08/18 06:18:26;;;;;;;11.90;10.70;;;26.70;99.90;;;;;;10246842;28;20301;-82
2022/08/18 06:23:39;;;;;;;11.95;10.75;;;26.70;99.90;;;;;;10249302;28;20262;-82
2022/08/18 06:29:07;;;;;;;12.23;11.02;;;26.70;99.90;;;;;;10249447;29;20253;-82
2022/08/18 06:34:43;;;;;;;11.45;10.25;;;26.80;99.90;;;;;;10244821;28;20610;-81
2022/08/18 06:39:49;;;;;;;11.60;10.57;;;26.80;99.90;;;;;;10249917;29;20301;-82
2022/08/18 06:44:56;;;;;;;11.07;10.07;;;26.90;99.90;;;;;;10250754;28;20625;-82
2022/08/18 06:50:07;;;;;;;12.35;10.57;;;26.90;99.90;;;;;;10249955;29;20304;-85
2022/08/18 06:55:15;;;;;;;11.20;10.18;;;27.00;99.90;;;;;;10244537;28;20241;-83
2022/08/18 07:00:18;;;;;;;11.55;10.45;;;27.00;99.90;;;;;;10242095;29;20347;-82
2022/08/18 07:05:31;;;;;;;11.93;10.82;;;26.90;99.90;;;;;;10260356;28;20333;-83
2022/08/18 07:10:38;;;;;;;11.65;10.50;;;27.10;99.90;;;;;;10252320;28;20695;-82
2022/08/18 07:15:42;;;;;;;11.02;10.02;;;27.10;99.90;;;;;;10241802;28;20234;-82
2022/08/18 07:20:52;;;;;;;19.60;16.88;;;27.10;99.90;;;;;;10247031;28;20254;-82
2022/08/18 07:26:11;;;;;;;21.52;18.35;;;27.10;99.90;;;;;;10241655;28;20234;-83
2022/08/18 07:31:47;;;;;;;11.70;10.60;;;27.10;99.90;;;;;;10244647;29;20670;-83
2022/08/18 07:36:53;;;;;;;15.35;13.68;;;;;;;;;;10256549;28;20261;-83
2022/08/18 07:42:08;;;;;;;12.90;10.75;;;27.10;99.90;;;;;;10245500;29;20253;-83
2022/08/18 07:47:46;;;;;;;12.68;11.38;;;27.10;99.90;;;;;;10268201;28;20262;-83
2022/08/18 07:53:04;;;;;;;12.88;11.65;;;27.10;99.90;;;;;;10245206;28;20242;-82
2022/08/18 07:58:20;;;;;;;24.08;18.33;;;27.10;99.90;;;;;;10259679;28;20269;-83
2022/08/18 08:03:57;;;;;;;13.00;11.70;;;27.30;99.90;;;;;;10243202;29;20266;-82
2022/08/18 08:09:53;;;;;;;13.82;12.43;;;27.30;99.90;;;;;;10243466;29;20269;-83
2022/08/18 08:15:09;;;;;;;13.57;10.18;;;27.40;99.90;;;;;;10240042;28;20237;-83
2022/08/18 08:20:31;;;;;;;15.55;13.90;;;27.50;99.90;;;;;;10250019;28;20560;-83
2022/08/18 08:26:03;;;;;;;18.83;14.82;;;27.60;99.90;;;;;;10242660;28;20280;-82
2022/08/18 08:31:10;;;;;;;12.27;11.18;;;27.70;99.90;;;;;;10201160;29;20285;-81
2022/08/18 08:36:37;;;;;;;12.27;11.07;;;27.80;99.90;;;;;;10235032;29;20752;-82
2022/08/18 08:41:50;;;;;;;12.95;11.70;;;27.90;99.90;;;;;;10240535;29;20677;-86
2022/08/18 08:47:06;;;;;;;22.42;16.45;;;28.00;99.90;;;;;;10223400;29;20239;-83
2022/08/18 08:52:23;;;;;;;13.48;12.18;;;28.00;99.90;;;;;;10241617;29;20241;-82
2022/08/18 08:57:32;;;;;;;16.02;11.43;;;28.30;99.90;;;;;;10245074;28;20296;-82
2022/08/18 09:02:59;;;;;;;16.67;14.15;;;28.50;99.90;;;;;;10251296;29;20317;-83
2022/08/18 09:09:09;;;;;;;30.83;14.07;;;29.00;99.90;;;;;;10239422;29;20738;-83
2022/08/18 09:14:14;;;;;;;21.63;13.90;;;28.60;99.90;;;;;;10248499;29;20346;-84
2022/08/18 09:19:31;;;;;;;16.73;12.93;;;28.80;99.90;;;;;;10247559;29;20242;-84
2022/08/18 09:24:46;;;;;;;12.48;11.27;;;29.30;99.90;;;;;;10248568;28;20313;-84
2022/08/18 09:29:58;;;;;;;13.60;11.70;;;29.20;99.90;;;;;;10251645;28;20275;-84
2022/08/18 09:35:22;;;;;;;14.27;12.75;;;29.30;99.90;;;;;;10265512;28;20591;-83
2022/08/18 09:46:06;;;;;;;12.45;11.25;;;29.30;99.90;;;;;;10251145;29;20273;-82
2022/08/18 09:51:19;;;;;;;11.20;10.20;;;29.70;99.90;;;;;;10250398;28;20225;-82
2022/08/18 09:56:47;;;;;;;12.07;10.98;;;29.70;99.90;;;;;;10246187;29;20268;-81
2022/08/18 10:01:57;;;;;;;13.15;11.85;;;29.50;99.90;;;;;;10341670;23;20334;-82
2022/08/18 10:07:14;;;;;;;14.43;12.02;;;29.10;99.90;;;;;;10318100;28;20662;-80
2022/08/18 10:12:39;;;;;;;12.95;11.75;;;29.30;99.90;;;;;;10312918;28;20290;-81
2022/08/18 10:17:49;;;;;;;22.77;12.40;;;29.40;99.90;;;;;;10327532;28;20240;-82
2022/08/18 10:22:53;;;;;;;12.48;11.02;;;30.00;99.90;;;;;;10327032;28;20256;-81
2022/08/18 10:27:56;;;;;;;13.05;11.27;;;30.10;99.90;;;;;;10336437;28;20225;-81
2022/08/18 10:33:03;;;;;;;12.85;11.65;;;29.90;99.90;;;;;;9979380;28;10000313;-81
2022/08/18 10:38:25;;;;;;;18.33;12.68;;;29.70;99.90;;;;;;10325391;28;20267;-81
2022/08/18 10:43:41;;;;;;;12.75;11.50;;;29.50;99.90;;;;;;10322935;28;20256;-81
2022/08/18 10:49:24;;;;;;;18.00;13.43;;;29.80;99.90;;;;;;10321592;28;20673;-81
2022/08/18 10:54:42;;;;;;;15.10;13.50;;;29.70;99.90;;;;;;10322133;28;20244;-81
2022/08/18 11:00:06;;;;;;;18.30;12.45;;;29.40;99.90;;;;;;10315457;28;20349;-82
2022/08/18 11:05:16;;;;;;;16.02;14.45;;;29.30;99.90;;;;;;10328874;28;20278;-83
2022/08/18 11:10:38;;;;;;;16.25;14.00;;;29.20;99.90;;;;;;10328123;28;20662;-81
2022/08/18 11:16:12;;;;;;;18.17;12.85;;;29.40;99.90;;;;;;10326732;28;20229;-81
2022/08/18 11:21:30;;;;;;;17.25;11.68;;;29.10;99.90;;;;;;10327488;28;20768;-84
2022/08/18 11:26:36;;;;;;;24.75;12.63;;;29.20;99.90;;;;;;10324392;28;20776;-81
2022/08/18 11:31:41;;;;;;;14.63;13.02;;;29.70;99.90;;;;;;10326091;28;20245;-81
2022/08/18 11:37:04;;;;;;;14.05;11.93;;;29.40;99.90;;;;;;10327689;28;20652;-82
2022/08/18 11:42:14;;;;;;;13.85;12.45;;;29.50;99.90;;;;;;10325160;28;20689;-82
2022/08/18 11:47:37;;;;;;;17.73;13.50;;;30.10;99.90;;;;;;10322756;28;20224;-82
2022/08/18 11:52:50;;;;;;;16.95;12.23;;;30.20;99.90;;;;;;10325921;28;20287;-81
2022/08/18 11:57:56;;;;;;;13.80;11.93;;;29.60;99.90;;;;;;10326936;28;20799;-81
2022/08/18 12:03:08;;;;;;;19.33;13.00;;;30.10;99.90;;;;;;10319946;28;20294;-81
2022/08/18 12:08:20;;;;;;;14.63;13.23;;;30.60;99.90;;;;;;10303037;28;20228;-83
2022/08/18 12:13:45;;;;;;;13.57;12.13;;;30.70;99.90;;;;;;10319391;28;20318;-82
2022/08/18 12:18:52;;;;;;;15.80;12.80;;;30.60;99.90;;;;;;10325021;28;20260;-84
2022/08/18 12:23:55;;;;;;;14.90;13.40;;;30.80;99.90;;;;;;10325239;28;20699;-82
2022/08/18 12:28:57;;;;;;;14.63;13.07;;;30.20;99.90;;;;;;10321411;28;20724;-82
2022/08/18 12:34:23;;;;;;;14.77;13.23;;;30.40;99.90;;;;;;10326119;28;20228;-82
2022/08/18 12:39:29;;;;;;;14.13;12.70;;;29.90;99.90;;;;;;10332944;28;20236;-81
2022/08/18 12:44:33;;;;;;;15.63;13.27;;;30.20;99.90;;;;;;10329341;28;20256;-81
2022/08/18 12:49:36;;;;;;;15.48;13.90;;;30.60;99.90;;;;;;10331958;28;20232;-81
2022/08/18 12:54:39;;;;;;;14.18;12.88;;;30.50;99.90;;;;;;9640292;28;10000824;-82
2022/08/18 12:59:57;;;;;;;14.63;12.48;;;30.10;99.90;;;;;;10321776;28;20252;-82
2022/08/18 13:05:00;;;;;;;15.98;12.95;;;30.40;99.90;;;;;;10318874;28;20263;-82
2022/08/18 13:10:04;;;;;;;14.05;11.48;;;29.80;99.90;;;;;;10325960;28;20267;-82
2022/08/18 13:15:08;;;;;;;29.50;12.07;;;30.00;99.90;;;;;;10328240;28;20613;-82
2022/08/18 13:20:14;;;;;;;15.93;11.68;;;31.20;98.60;;;;;;10329185;28;20318;-82
2022/08/18 13:25:18;;;;;;;13.50;12.13;;;31.00;99.90;;;;;;10326365;28;20309;-82
2022/08/18 13:30:34;;;;;;;13.95;12.52;;;30.60;99.90;;;;;;10327565;28;20232;-83
2022/08/18 13:35:37;;;;;;;13.50;10.25;;;30.40;99.90;;;;;;10328056;28;20262;-83
2022/08/18 13:40:47;;;;;;;12.98;11.82;;;30.20;99.40;;;;;;10326095;28;20240;-82
2022/08/18 13:45:50;;;;;;;15.80;11.07;;;29.60;99.90;;;;;;10328240;28;20263;-83
2022/08/18 13:50:57;;;;;;;12.10;10.85;;;29.60;99.90;;;;;;10327848;28;20708;-83
2022/08/18 13:56:02;;;;;;;13.20;10.55;;;29.60;99.90;;;;;;10318019;28;20277;-81
2022/08/18 14:01:07;;;;;;;17.42;11.45;;;29.70;99.90;;;;;;10322759;28;20276;-83
2022/08/18 14:06:29;;;;;;;14.40;13.00;;;29.60;99.90;;;;;;10295185;28;20300;-82
2022/08/18 14:11:36;;;;;;;12.32;11.10;;;29.40;99.90;;;;;;10297725;28;20703;-83
2022/08/18 14:16:43;;;;;;;13.85;12.55;;;29.30;99.90;;;;;;10325864;28;20240;-83
2022/08/18 14:27:12;;;;;;;13.07;11.88;;;29.90;99.90;;;;;;10316708;28;20714;-82
2022/08/18 14:32:21;;;;;;;12.52;10.32;;;29.20;99.90;;;;;;10331363;28;20299;-81
2022/08/18 14:37:31;;;;;;;20.45;11.05;;;29.30;99.90;;;;;;10314707;28;20209;-82
2022/08/18 14:42:35;;;;;;;12.07;10.98;;;29.20;99.90;;;;;;10329079;28;20251;-83
2022/08/18 14:47:56;;;;;;;13.68;12.27;;;29.10;99.90;;;;;;10329429;28;20637;-83
2022/08/18 14:52:59;;;;;;;12.43;11.25;;;28.80;99.90;;;;;;9982714;28;10000210;-83
2022/08/18 14:58:03;;;;;;;13.70;12.40;;;28.70;99.90;;;;;;10323128;28;20807;-83
2022/08/18 15:03:08;;;;;;;13.30;12.02;;;28.50;99.90;;;;;;10321598;28;20260;-83
2022/08/18 15:08:11;;;;;;;12.80;11.57;;;28.80;99.90;;;;;;10318158;28;20273;-83
2022/08/18 15:13:14;;;;;;;12.18;10.95;;;28.70;99.90;;;;;;10302707;28;20244;-83
2022/08/18 15:18:19;;;;;;;12.25;11.13;;;28.80;99.90;;;;;;10307827;28;20646;-85
2022/08/18 15:28:47;;;;;;;12.52;11.35;;;28.80;99.90;;;;;;10327948;28;20274;-82
2022/08/18 15:33:53;;;;;;;14.80;10.90;;;28.80;99.90;;;;;;10328087;28;20279;-82
2022/08/18 15:38:59;;;;;;;13.85;11.68;;;28.90;99.90;;;;;;10336815;28;20368;-83
2022/08/18 15:44:05;;;;;;;13.48;11.65;;;28.80;99.90;;;;;;10349914;28;20287;-83
2022/08/18 15:49:09;;;;;;;12.23;11.13;;;28.80;99.90;;;;;;10344244;28;20294;-83
2022/08/18 15:54:17;;;;;;;12.07;10.23;;;28.90;99.90;;;;;;10324973;28;20777;-82
2022/08/18 15:59:22;;;;;;;12.93;11.57;;;28.90;99.90;;;;;;10309466;28;20272;-82
2022/08/18 16:04:38;;;;;;;12.35;10.50;;;28.90;99.90;;;;;;10325463;28;20268;-82
2022/08/18 16:09:41;;;;;;;11.73;10.57;;;29.00;99.90;;;;;;10314893;28;20263;-83
2022/08/18 16:14:43;;;;;;;12.32;9.52;;;29.00;99.90;;;;;;10324158;28;20259;-83
2022/08/18 16:19:46;;;;;;;13.23;11.90;;;28.90;99.90;;;;;;10324513;28;20209;-83
2022/08/18 16:24:50;;;;;;;12.65;11.35;;;28.50;99.90;;;;;;10325565;28;20256;-82
2022/08/18 16:29:56;;;;;;;12.13;11.02;;;28.30;99.90;;;;;;10328173;28;20255;-82
2022/08/18 16:34:59;;;;;;;14.02;11.27;;;28.20;99.90;;;;;;10326795;28;20760;-82
2022/08/18 16:40:01;;;;;;;12.50;11.40;;;28.10;99.90;;;;;;10309680;28;20220;-82
2022/08/18 16:45:05;;;;;;;12.45;9.65;;;28.00;99.90;;;;;;10326000;28;20252;-82
2022/08/18 16:50:09;;;;;;;12.95;11.68;;;;;;;;;;10325986;28;20240;-82
2022/08/18 16:55:12;;;;;;;15.93;13.48;;;27.80;99.90;;;;;;10325695;28;20233;-82
2022/08/18 17:05:36;;;;;;;16.40;14.63;;;27.70;99.90;;;;;;10325086;28;20800;-82
2022/08/18 17:10:40;;;;;;;12.23;10.77;;;27.60;99.90;;;;;;10325316;28;20287;-82
2022/08/18 17:15:48;;;;;;;17.60;15.75;;;27.60;99.90;;;;;;10326267;28;20240;-82
2022/08/18 17:20:51;;;;;;;16.98;14.93;;;27.50;99.90;;;;;;10325622;28;20683;-82
2022/08/18 17:25:59;;;;;;;17.48;15.68;;;27.50;99.90;;;;;;10310910;28;20257;-82
2022/08/18 17:31:05;;;;;;;19.65;16.45;;;27.40;99.90;;;;;;10331848;28;20287;-82
2022/08/18 17:36:15;;;;;;;21.35;14.73;;;27.30;99.90;;;;;;10331631;28;20286;-82
2022/08/18 17:41:19;;;;;;;17.38;14.80;;;27.30;99.90;;;;;;10333271;28;20240;-82
2022/08/18 17:46:26;;;;;;;17.70;15.93;;;27.30;99.90;;;;;;10330924;28;20312;-83
2022/08/18 17:51:37;;;;;;;18.92;16.10;;;27.20;99.90;;;;;;10331324;28;20271;-83
2022/08/18 17:56:51;;;;;;;18.77;16.88;;;27.10;99.90;;;;;;10332526;28;20212;-82
2022/08/18 18:02:30;;;;;;;21.45;13.30;;;27.10;99.90;;;;;;10332218;28;20253;-83
2022/08/18 18:07:58;;;;;;;22.45;15.18;;;27.00;99.90;;;;;;10340462;28;20269;-83
2022/08/18 18:13:05;;;;;;;19.65;16.23;;;26.90;99.90;;;;;;10322792;28;20224;-82
2022/08/18 18:18:28;;;;;;;25.77;15.15;;;26.80;99.90;;;;;;10329290;28;20296;-82
2022/08/18 18:23:37;;;;;;;18.88;16.65;;;26.80;99.90;;;;;;10332459;28;20812;-82
2022/08/18 18:28:39;;;;;;;18.42;16.58;;;26.80;99.90;;;;;;10329089;28;20233;-82
2022/08/18 18:33:42;;;;;;;20.33;17.67;;;26.80;99.90;;;;;;10311866;28;20682;-81
2022/08/18 18:38:47;;;;;;;24.98;16.58;;;26.70;99.90;;;;;;10326881;28;20265;-83
2022/08/18 18:44:08;;;;;;;18.77;16.13;;;26.70;99.90;;;;;;10328155;28;20264;-81
2022/08/18 18:49:25;;;;;;;17.35;15.63;;;26.80;99.90;;;;;;10331284;28;20229;-81
2022/08/18 18:54:37;;;;;;;17.45;15.75;;;26.70;99.90;;;;;;10330139;28;20697;-82
2022/08/18 19:00:14;;;;;;;16.60;15.00;;;26.60;99.90;;;;;;10328734;28;20272;-82
2022/08/18 19:05:35;;;;;;;15.73;14.15;;;26.50;99.90;;;;;;10326154;28;20252;-82
2022/08/18 19:10:38;;;;;;;17.00;15.27;;;26.50;99.90;;;;;;10317694;28;20298;-82
2022/08/18 19:15:43;;;;;;;18.05;15.75;;;26.50;99.90;;;;;;10327427;28;20303;-83
2022/08/18 19:20:49;;;;;;;18.50;15.93;;;26.50;99.90;;;;;;10297992;28;20351;-83
2022/08/18 19:26:26;;;;;;;17.05;15.25;;;26.40;99.90;;;;;;10319279;28;20486;-83
2022/08/18 19:31:33;;;;;;;18.58;12.48;;;26.40;99.90;;;;;;10351825;28;20203;-83
2022/08/18 19:36:51;;;;;;;18.52;13.70;;;26.40;99.90;;;;;;10340417;28;20240;-83
2022/08/18 19:42:08;;;;;;;22.27;13.93;;;26.30;99.90;;;;;;10292596;28;20294;-82
2022/08/18 19:47:18;;;;;;;15.20;13.80;;;26.30;99.90;;;;;;10340966;23;20257;-83
2022/08/18 19:52:40;;;;;;;16.92;15.02;;;26.30;99.90;;;;;;10248961;29;20723;-82
2022/08/18 19:58:18;;;;;;;16.65;13.32;;;26.30;99.90;;;;;;10257799;28;20691;-82
2022/08/18 20:03:21;;;;;;;19.25;13.88;;;26.30;99.90;;;;;;10243758;28;20304;-82
2022/08/18 20:08:32;;;;;;;15.23;13.77;;;26.30;99.90;;;;;;10243842;28;20237;-82
2022/08/18 20:13:41;;;;;;;15.95;13.85;;;26.30;99.90;;;;;;10243651;28;20278;-81
2022/08/18 20:18:50;;;;;;;15.55;13.48;;;26.30;99.90;;;;;;10239255;28;20265;-81
2022/08/18 20:23:58;;;;;;;15.63;14.00;;;26.30;99.90;;;;;;10258017;28;20261;-81
2022/08/18 20:29:01;;;;;;;21.50;15.05;;;26.30;99.90;;;;;;10242137;28;20374;-82
2022/08/18 20:34:10;;;;;;;16.75;13.50;;;26.30;99.90;;;;;;10244769;28;20273;-82
2022/08/18 20:39:44;;;;;;;15.10;13.60;;;26.30;99.90;;;;;;10242981;29;20905;-83
2022/08/18 20:45:02;;;;;;;15.98;14.27;;;26.30;99.90;;;;;;10241971;28;20881;-83
2022/08/18 20:50:47;;;;;;;14.88;13.13;;;26.30;99.90;;;;;;10238808;28;20249;-83
2022/08/18 20:56:11;;;;;;;14.68;13.20;;;26.20;99.90;;;;;;10206234;29;20254;-82
2022/08/18 21:01:35;;;;;;;15.05;13.55;;;26.20;99.90;;;;;;10222103;29;20249;-82
2022/08/18 21:06:43;;;;;;;16.55;11.40;;;26.10;99.90;;;;;;10251197;28;20334;-83
2022/08/18 21:14:02;;;;;;;14.93;13.32;;;25.50;99.90;;;;;;10480719;28;20595;-81
2022/08/18 21:19:19;;;;;;;13.88;12.50;;;25.40;99.90;;;;;;10386003;28;20299;-81
2022/08/18 21:24:48;;;;;;;14.57;13.10;;;25.60;99.90;;;;;;10403031;28;20277;-81
2022/08/18 21:29:55;;;;;;;14.90;13.40;;;25.80;99.90;;;;;;10402625;28;20278;-82
2022/08/18 21:35:21;;;;;;;14.43;12.95;;;25.90;99.90;;;;;;10418852;28;20294;-81
2022/08/18 21:40:45;;;;;;;15.00;13.50;;;25.90;99.90;;;;;;10428026;28;20745;-82
2022/08/18 21:45:57;;;;;;;13.75;12.45;;;26.00;99.90;;;;;;10442000;28;20280;-82
2022/08/18 21:51:00;;;;;;;15.27;12.73;;;26.00;99.90;;;;;;10443480;28;20254;-81
2022/08/18 21:56:03;;;;;;;15.30;13.73;;;26.10;99.90;;;;;;10419466;28;20288;-81
2022/08/18 22:01:22;;;;;;;13.82;12.52;;;26.10;99.90;;;;;;10444006;28;20304;-81
2022/08/18 22:06:32;;;;;;;14.02;12.63;;;26.10;99.90;;;;;;10434213;28;20230;-80
2022/08/18 22:17:42;;;;;;;14.57;13.07;;;26.00;99.90;;;;;;10444491;28;20223;-81
2022/08/18 22:28:06;;;;;;;14.18;12.73;;;26.00;99.90;;;;;;10444204;28;20253;-81
2022/08/18 22:33:09;;;;;;;13.95;12.65;;;26.00;99.90;;;;;;10454451;28;20300;-81
2022/08/18 22:38:11;;;;;;;13.82;12.52;;;26.00;99.90;;;;;;10418379;28;20747;-81
2022/08/18 22:43:15;;;;;;;14.23;12.82;;;26.00;99.90;;;;;;10446270;28;20696;-81
2022/08/18 22:48:18;;;;;;;13.13;11.82;;;26.00;99.90;;;;;;10440429;28;20238;-81
2022/08/18 22:53:20;;;;;;;13.85;12.65;;;26.00;99.90;;;;;;10413364;28;20246;-81
2022/08/18 22:58:23;;;;;;;14.73;13.23;;;26.00;99.90;;;;;;10410893;28;20223;-81
2022/08/18 23:03:29;;;;;;;14.02;12.57;;;26.00;99.90;;;;;;10411821;28;20648;-81
2022/08/18 23:08:33;;;;;;;13.48;12.07;;;26.00;99.90;;;;;;10411760;28;20291;-81
2022/08/18 23:13:58;;;;;;;13.48;12.15;;;26.00;99.90;;;;;;10413481;28;20235;-81
2022/08/18 23:19:00;;;;;;;13.73;12.43;;;25.90;99.90;;;;;;10405565;28;20223;-81
2022/08/18 23:24:05;;;;;;;13.48;12.18;;;25.90;99.90;;;;;;10431969;28;20223;-81
2022/08/18 23:29:10;;;;;;;13.65;12.40;;;25.90;99.90;;;;;;10417669;28;20692;-81
2022/08/18 23:34:16;;;;;;;13.68;12.38;;;25.90;99.90;;;;;;10411327;28;20274;-81
2022/08/18 23:39:19;;;;;;;13.45;12.25;;;25.90;99.90;;;;;;10435269;28;20231;-80
2022/08/18 23:44:23;;;;;;;12.98;11.77;;;25.90;99.90;;;;;;10411335;28;20607;-81
2022/08/18 23:49:29;;;;;;;14.50;13.10;;;25.90;99.90;;;;;;10394954;28;20246;-81
2022/08/18 23:54:34;;;;;;;13.77;12.45;;;25.90;99.90;;;;;;10411874;28;20239;-81
2022/08/18 23:59:36;;;;;;;12.85;11.65;;;25.90;99.90;;;;;;10408743;28;20247;-81
